PWSweather.com
Personal Weather Stations
Station Observations
KOHAVON11
Long Road Station, Avon, OH 44011

Long Road StationAvon, OH 44011

Lat: 41.437, Lon: -82.0477

Elevation: 686

Station Type: Davis Vantage Pro2

http://www.avon-weather.com

Latest ConditionsUpdated 3:53:26 PM EST Sunday, Feb 14, 2016
Currently Today's Max Today's Min Today's Average
Temperature 19.7°F-6.8°C 22.2°F-5.4°C -1.5°F-18.6°C 8.6°F-13.0°C
Dew Point 2.9°F-16.2°C 8.2°F-13.2°C -7.4°F-21.9°C -0.7°F-18.2°C
Winds 1.0 mph S1.6 kmh S 10.0 mph S16.1 kmh S - 2.4 mph 3.9 kmh
Wind Gusts 8.0 mph12.9 kmh 13.0 mph20.9 kmh - -
Humidity 48% 80% 45% 67%
Pressure 30.39 in1029.1 mb 30.55 in1034.5 mb 30.39 in1029.1 mb -
Hour Temp Dew Point Humidity Winds Wind Gusts Pressure Precip Precip Rate Daily Precip Total
03:53 PM 19.7°F-6.8°C 2.9°F-16.2°C 48% 1.0 mph S1.6 kmh S 8.0 mph12.9 kmh 30.39 in1029.1 mb 0.00 in0.0 mm 0.00 in0.0 mm 0.00 in0.0 mm
03:48 PM 19.8°F-6.8°C 3.0°F-16.1°C 48% 4.0 mph S6.4 kmh S 8.0 mph12.9 kmh 30.39 in1029.1 mb 0.00 in0.0 mm 0.00 in0.0 mm 0.00 in0.0 mm
03:43 PM 19.8°F-6.8°C 2.5°F-16.4°C 47% 2.0 mph S3.2 kmh S 8.0 mph12.9 kmh 30.40 in1029.5 mb 0.00 in0.0 mm 0.00 in0.0 mm 0.00 in0.0 mm
03:38 PM 19.8°F-6.8°C 3.0°F-16.1°C 48% Calm Calm 1.0 mph1.6 kmh 30.40 in1029.5 mb 0.00 in0.0 mm 0.00 in0.0 mm 0.00 in0.0 mm
03:33 PM 19.6°F-6.9°C 2.8°F-16.2°C 48% Calm Calm -- 30.40 in1029.5 mb 0.00 in0.0 mm 0.00 in0.0 mm 0.00 in0.0 mm
03:28 PM 19.4°F-7.0°C 2.1°F-16.6°C 47% 3.0 mph SE4.8 kmh SE 7.0 mph11.3 kmh 30.40 in1029.5 mb 0.00 in0.0 mm 0.00 in0.0 mm 0.00 in0.0 mm
03:23 PM 19.4°F-7.0°C 2.1°F-16.6°C 47% 3.0 mph S4.8 kmh S 9.0 mph14.5 kmh 30.40 in1029.5 mb 0.00 in0.0 mm 0.00 in0.0 mm 0.00 in0.0 mm
03:18 PM 19.5°F-6.9°C 2.7°F-16.3°C 48% 2.0 mph S3.2 kmh S 9.0 mph14.5 kmh 30.40 in1029.5 mb 0.00 in0.0 mm 0.00 in0.0 mm 0.00 in0.0 mm
03:13 PM 19.5°F-6.9°C 2.2°F-16.6°C 47% 7.0 mph SSW11.3 kmh SSW 13.0 mph20.9 kmh 30.40 in1029.5 mb 0.00 in0.0 mm 0.00 in0.0 mm 0.00 in0.0 mm
03:08 PM 19.4°F-7.0°C 2.6°F-16.3°C 48% 1.0 mph S1.6 kmh S 13.0 mph20.9 kmh 30.40 in1029.5 mb 0.00 in0.0 mm 0.00 in0.0 mm 0.00 in0.0 mm
03:03 PM 19.6°F-6.9°C 2.3°F-16.5°C 47% 3.0 mph SSE4.8 kmh SSE 13.0 mph20.9 kmh 30.41 in1029.8 mb 0.00 in0.0 mm 0.00 in0.0 mm 0.00 in0.0 mm
02:58 PM 20.0°F-6.7°C 2.2°F-16.6°C 46% 6.0 mph SSW9.7 kmh SSW 13.0 mph20.9 kmh 30.42 in1030.1 mb 0.00 in0.0 mm 0.00 in0.0 mm 0.00 in0.0 mm
02:53 PM 20.4°F-6.4°C 3.0°F-16.1°C 47% 3.0 mph SSW4.8 kmh SSW 10.0 mph16.1 kmh 30.42 in1030.1 mb 0.00 in0.0 mm 0.00 in0.0 mm 0.00 in0.0 mm
02:48 PM 20.6°F-6.3°C 2.7°F-16.3°C 46% 8.0 mph S12.9 kmh S 10.0 mph16.1 kmh 30.42 in1030.1 mb 0.00 in0.0 mm 0.00 in0.0 mm 0.00 in0.0 mm
02:43 PM 21.0°F-6.1°C 3.1°F-16.1°C 46% 5.0 mph S8.0 kmh S 10.0 mph16.1 kmh 30.43 in1030.5 mb 0.00 in0.0 mm 0.00 in0.0 mm 0.00 in0.0 mm
02:38 PM 21.2°F-6.0°C 2.8°F-16.2°C 45% 3.0 mph SSW4.8 kmh SSW 8.0 mph12.9 kmh 30.43 in1030.5 mb 0.00 in0.0 mm 0.00 in0.0 mm 0.00 in0.0 mm
02:33 PM 21.5°F-5.8°C 3.1°F-16.1°C 45% 3.0 mph SW4.8 kmh SW 8.0 mph12.9 kmh 30.43 in1030.5 mb 0.00 in0.0 mm 0.00 in0.0 mm 0.00 in0.0 mm
02:28 PM 21.8°F-5.7°C 3.8°F-15.7°C 46% Calm Calm 2.0 mph3.2 kmh 30.43 in1030.5 mb 0.00 in0.0 mm 0.00 in0.0 mm 0.00 in0.0 mm
02:23 PM 21.6°F-5.8°C 3.1°F-16.1°C 45% 2.0 mph SW3.2 kmh SW 12.0 mph19.3 kmh 30.44 in1030.8 mb 0.00 in0.0 mm 0.00 in0.0 mm 0.00 in0.0 mm
02:18 PM 21.6°F-5.8°C 3.6°F-15.8°C 46% 3.0 mph SSW4.8 kmh SSW 12.0 mph19.3 kmh 30.44 in1030.8 mb 0.00 in0.0 mm 0.00 in0.0 mm 0.00 in0.0 mm
02:13 PM 21.7°F-5.7°C 3.2°F-16.0°C 45% 1.0 mph SW1.6 kmh SW 12.0 mph19.3 kmh 30.44 in1030.8 mb 0.00 in0.0 mm 0.00 in0.0 mm 0.00 in0.0 mm
02:08 PM 22.1°F-5.5°C 3.6°F-15.8°C 45% 10.0 mph S16.1 kmh S 10.0 mph16.1 kmh 30.45 in1031.2 mb 0.00 in0.0 mm 0.00 in0.0 mm 0.00 in0.0 mm
02:03 PM 22.2°F-5.4°C 4.2°F-15.4°C 46% 10.0 mph S16.1 kmh S 10.0 mph16.1 kmh 30.45 in1031.2 mb 0.00 in0.0 mm 0.00 in0.0 mm 0.00 in0.0 mm
01:58 PM 21.7°F-5.7°C 3.7°F-15.7°C 46% Calm Calm 10.0 mph16.1 kmh 30.45 in1031.2 mb 0.00 in0.0 mm 0.00 in0.0 mm 0.00 in0.0 mm
01:53 PM 21.1°F-6.1°C 3.2°F-16.0°C 46% Calm Calm 11.0 mph17.7 kmh 30.45 in1031.2 mb 0.00 in0.0 mm 0.00 in0.0 mm 0.00 in0.0 mm
01:48 PM 21.0°F-6.1°C 3.1°F-16.1°C 46% 4.0 mph S6.4 kmh S 11.0 mph17.7 kmh 30.45 in1031.2 mb 0.00 in0.0 mm 0.00 in0.0 mm 0.00 in0.0 mm
01:43 PM 21.1°F-6.1°C 3.2°F-16.0°C 46% 8.0 mph SSW12.9 kmh SSW 13.0 mph20.9 kmh 30.45 in1031.2 mb 0.00 in0.0 mm 0.00 in0.0 mm 0.00 in0.0 mm
01:38 PM 21.2°F-6.0°C 3.3°F-15.9°C 46% 10.0 mph S16.1 kmh S 13.0 mph20.9 kmh 30.45 in1031.2 mb 0.00 in0.0 mm 0.00 in0.0 mm 0.00 in0.0 mm
01:33 PM 21.1°F-6.1°C 3.2°F-16.0°C 46% 10.0 mph S16.1 kmh S 13.0 mph20.9 kmh 30.45 in1031.2 mb 0.00 in0.0 mm 0.00 in0.0 mm 0.00 in0.0 mm
01:28 PM 20.8°F-6.2°C 2.9°F-16.2°C 46% 4.0 mph SSW6.4 kmh SSW 13.0 mph20.9 kmh 30.46 in1031.5 mb 0.00 in0.0 mm 0.00 in0.0 mm 0.00 in0.0 mm
01:23 PM 20.7°F-6.3°C 3.3°F-15.9°C 47% 4.0 mph S6.4 kmh S 12.0 mph19.3 kmh 30.46 in1031.5 mb 0.00 in0.0 mm 0.00 in0.0 mm 0.00 in0.0 mm
01:18 PM 20.8°F-6.2°C 3.4°F-15.9°C 47% 8.0 mph S12.9 kmh S 12.0 mph19.3 kmh 30.46 in1031.5 mb 0.00 in0.0 mm 0.00 in0.0 mm 0.00 in0.0 mm
01:13 PM 20.5°F-6.4°C 4.1°F-15.5°C 49% 1.0 mph SSE1.6 kmh SSE 2.0 mph3.2 kmh 30.45 in1031.2 mb 0.00 in0.0 mm 0.00 in0.0 mm 0.00 in0.0 mm
01:08 PM 19.9°F-6.7°C 3.5°F-15.8°C 49% Calm Calm 11.0 mph17.7 kmh 30.46 in1031.5 mb 0.00 in0.0 mm 0.00 in0.0 mm 0.00 in0.0 mm
01:03 PM 19.6°F-6.9°C 3.7°F-15.7°C 50% 4.0 mph SE6.4 kmh SE 11.0 mph17.7 kmh 30.46 in1031.5 mb 0.00 in0.0 mm 0.00 in0.0 mm 0.00 in0.0 mm
12:58 PM 19.6°F-6.9°C 2.8°F-16.2°C 48% 4.0 mph SSW6.4 kmh SSW 11.0 mph17.7 kmh 30.47 in1031.8 mb 0.00 in0.0 mm 0.00 in0.0 mm 0.00 in0.0 mm
12:53 PM 20.0°F-6.7°C 3.6°F-15.8°C 49% 7.0 mph S11.3 kmh S 7.0 mph11.3 kmh 30.47 in1031.8 mb 0.00 in0.0 mm 0.00 in0.0 mm 0.00 in0.0 mm
12:48 PM 20.0°F-6.7°C 3.6°F-15.8°C 49% 6.0 mph S9.7 kmh S 11.0 mph17.7 kmh 30.47 in1031.8 mb 0.00 in0.0 mm 0.00 in0.0 mm 0.00 in0.0 mm
12:43 PM 20.1°F-6.6°C 3.7°F-15.7°C 49% 5.0 mph S8.0 kmh S 11.0 mph17.7 kmh 30.48 in1032.2 mb 0.00 in0.0 mm 0.00 in0.0 mm 0.00 in0.0 mm
12:38 PM 20.5°F-6.4°C 3.6°F-15.8°C 48% 10.0 mph S16.1 kmh S 10.0 mph16.1 kmh 30.48 in1032.2 mb 0.00 in0.0 mm 0.00 in0.0 mm 0.00 in0.0 mm
12:33 PM 20.4°F-6.4°C 3.5°F-15.8°C 48% Calm Calm 8.0 mph12.9 kmh 30.49 in1032.5 mb 0.00 in0.0 mm 0.00 in0.0 mm 0.00 in0.0 mm
12:28 PM 20.2°F-6.6°C 3.8°F-15.7°C 49% Calm Calm 7.0 mph11.3 kmh 30.49 in1032.5 mb 0.00 in0.0 mm 0.00 in0.0 mm 0.00 in0.0 mm
12:23 PM 20.0°F-6.7°C 3.6°F-15.8°C 49% Calm Calm 10.0 mph16.1 kmh 30.50 in1032.8 mb 0.00 in0.0 mm 0.00 in0.0 mm 0.00 in0.0 mm
12:18 PM 20.1°F-6.6°C 3.7°F-15.7°C 49% Calm Calm 10.0 mph16.1 kmh 30.50 in1032.8 mb 0.00 in0.0 mm 0.00 in0.0 mm 0.00 in0.0 mm
12:13 PM 19.9°F-6.7°C 3.5°F-15.8°C 49% Calm Calm 10.0 mph16.1 kmh 30.50 in1032.8 mb 0.00 in0.0 mm 0.00 in0.0 mm 0.00 in0.0 mm
12:08 PM 19.5°F-6.9°C 4.0°F-15.6°C 51% Calm Calm 10.0 mph16.1 kmh 30.51 in1033.2 mb 0.00 in0.0 mm 0.00 in0.0 mm 0.00 in0.0 mm
12:03 PM 19.2°F-7.1°C 3.8°F-15.7°C 51% 5.0 mph SSE8.0 kmh SSE 10.0 mph16.1 kmh 30.51 in1033.2 mb 0.00 in0.0 mm 0.00 in0.0 mm 0.00 in0.0 mm
11:58 AM 18.9°F-7.3°C 3.5°F-15.8°C 51% 8.0 mph ESE12.9 kmh ESE 10.0 mph16.1 kmh 30.51 in1033.2 mb 0.00 in0.0 mm 0.00 in0.0 mm 0.00 in0.0 mm
11:53 AM 18.6°F-7.4°C 3.2°F-16.0°C 51% 5.0 mph SE8.0 kmh SE 10.0 mph16.1 kmh 30.52 in1033.5 mb 0.00 in0.0 mm 0.00 in0.0 mm 0.00 in0.0 mm
11:48 AM 18.4°F-7.6°C 3.5°F-15.8°C 52% 5.0 mph SE8.0 kmh SE 10.0 mph16.1 kmh 30.52 in1033.5 mb 0.00 in0.0 mm 0.00 in0.0 mm 0.00 in0.0 mm
11:43 AM 18.1°F-7.7°C 4.0°F-15.6°C 54% 5.0 mph ESE8.0 kmh ESE 10.0 mph16.1 kmh 30.52 in1033.5 mb 0.00 in0.0 mm 0.00 in0.0 mm 0.00 in0.0 mm
11:38 AM 17.9°F-7.8°C 4.3°F-15.4°C 55% 2.0 mph SSE3.2 kmh SSE 10.0 mph16.1 kmh 30.52 in1033.5 mb 0.00 in0.0 mm 0.00 in0.0 mm 0.00 in0.0 mm
11:33 AM 18.2°F-7.7°C 4.5°F-15.3°C 55% 7.0 mph SSW11.3 kmh SSW 9.0 mph14.5 kmh 30.52 in1033.5 mb 0.00 in0.0 mm 0.00 in0.0 mm 0.00 in0.0 mm
11:28 AM 18.3°F-7.6°C 5.0°F-15.0°C 56% 7.0 mph S11.3 kmh S 9.0 mph14.5 kmh 30.53 in1033.9 mb 0.00 in0.0 mm 0.00 in0.0 mm 0.00 in0.0 mm
11:23 AM 17.9°F-7.8°C 5.1°F-14.9°C 57% 1.0 mph SSE1.6 kmh SSE 10.0 mph16.1 kmh 30.53 in1033.9 mb 0.00 in0.0 mm 0.00 in0.0 mm 0.00 in0.0 mm
11:18 AM 17.7°F-7.9°C 4.9°F-15.1°C 57% 6.0 mph SSW9.7 kmh SSW 10.0 mph16.1 kmh 30.53 in1033.9 mb 0.00 in0.0 mm 0.00 in0.0 mm 0.00 in0.0 mm
11:13 AM 17.5°F-8.1°C 5.1°F-14.9°C 58% 4.0 mph S6.4 kmh S 10.0 mph16.1 kmh 30.54 in1034.2 mb 0.00 in0.0 mm 0.00 in0.0 mm 0.00 in0.0 mm
11:08 AM 17.3°F-8.2°C 5.3°F-14.8°C 59% 4.0 mph SSW6.4 kmh SSW 10.0 mph16.1 kmh 30.54 in1034.2 mb 0.00 in0.0 mm 0.00 in0.0 mm 0.00 in0.0 mm
11:03 AM 17.1°F-8.3°C 5.5°F-14.7°C 60% 4.0 mph SSW6.4 kmh SSW 8.0 mph12.9 kmh 30.54 in1034.2 mb 0.00 in0.0 mm 0.00 in0.0 mm 0.00 in0.0 mm
10:58 AM 16.8°F-8.4°C 5.9°F-14.5°C 62% 6.0 mph SSW9.7 kmh SSW 8.0 mph12.9 kmh 30.54 in1034.2 mb 0.00 in0.0 mm 0.00 in0.0 mm 0.00 in0.0 mm
10:53 AM 16.4°F-8.7°C 5.9°F-14.5°C 63% 6.0 mph S9.7 kmh S 9.0 mph14.5 kmh 30.54 in1034.2 mb 0.00 in0.0 mm 0.00 in0.0 mm 0.00 in0.0 mm
10:48 AM 16.2°F-8.8°C 6.4°F-14.2°C 65% 3.0 mph SSE4.8 kmh SSE 9.0 mph14.5 kmh 30.54 in1034.2 mb 0.00 in0.0 mm 0.00 in0.0 mm 0.00 in0.0 mm
10:43 AM 15.8°F-9.0°C 6.7°F-14.1°C 67% 2.0 mph S3.2 kmh S 9.0 mph14.5 kmh 30.55 in1034.5 mb 0.00 in0.0 mm 0.00 in0.0 mm 0.00 in0.0 mm
10:38 AM 15.5°F-9.2°C 6.8°F-14.0°C 68% 3.0 mph S4.8 kmh S 9.0 mph14.5 kmh 30.55 in1034.5 mb 0.00 in0.0 mm 0.00 in0.0 mm 0.00 in0.0 mm
10:33 AM 15.3°F-9.3°C 7.6°F-13.6°C 71% 2.0 mph S3.2 kmh S 8.0 mph12.9 kmh 30.55 in1034.5 mb 0.00 in0.0 mm 0.00 in0.0 mm 0.00 in0.0 mm
10:28 AM 15.0°F-9.4°C 8.2°F-13.2°C 74% 7.0 mph S11.3 kmh S 7.0 mph11.3 kmh 30.55 in1034.5 mb 0.00 in0.0 mm 0.00 in0.0 mm 0.00 in0.0 mm
10:23 AM 14.4°F-9.8°C 8.2°F-13.2°C 76% 5.0 mph S8.0 kmh S 6.0 mph9.7 kmh 30.55 in1034.5 mb 0.00 in0.0 mm 0.00 in0.0 mm 0.00 in0.0 mm
10:18 AM 13.7°F-10.2°C 8.1°F-13.3°C 78% Calm Calm -- 30.55 in1034.5 mb 0.00 in0.0 mm 0.00 in0.0 mm 0.00 in0.0 mm
10:13 AM 13.0°F-10.6°C 7.8°F-13.4°C 79% 3.0 mph SW4.8 kmh SW 4.0 mph6.4 kmh 30.55 in1034.5 mb 0.00 in0.0 mm 0.00 in0.0 mm 0.00 in0.0 mm
10:08 AM 12.2°F-11.0°C 7.3°F-13.7°C 80% 1.0 mph SW1.6 kmh SW 5.0 mph8.0 kmh 30.55 in1034.5 mb 0.00 in0.0 mm 0.00 in0.0 mm 0.00 in0.0 mm
10:03 AM 11.3°F-11.5°C 6.1°F-14.4°C 79% 1.0 mph SW1.6 kmh SW 5.0 mph8.0 kmh 30.55 in1034.5 mb 0.00 in0.0 mm 0.00 in0.0 mm 0.00 in0.0 mm
09:58 AM 10.7°F-11.8°C 5.8°F-14.6°C 80% 5.0 mph SSW8.0 kmh SSW 7.0 mph11.3 kmh 30.55 in1034.5 mb 0.00 in0.0 mm 0.00 in0.0 mm 0.00 in0.0 mm
09:53 AM 10.1°F-12.2°C 5.2°F-14.9°C 80% 5.0 mph S8.0 kmh S 7.0 mph11.3 kmh 30.55 in1034.5 mb 0.00 in0.0 mm 0.00 in0.0 mm 0.00 in0.0 mm
09:48 AM 9.5°F-12.5°C 4.6°F-15.2°C 80% 7.0 mph S11.3 kmh S 7.0 mph11.3 kmh 30.55 in1034.5 mb 0.00 in0.0 mm 0.00 in0.0 mm 0.00 in0.0 mm
09:43 AM 8.9°F-12.8°C 4.0°F-15.6°C 80% 5.0 mph S8.0 kmh S 7.0 mph11.3 kmh 30.55 in1034.5 mb 0.00 in0.0 mm 0.00 in0.0 mm 0.00 in0.0 mm
09:38 AM 8.5°F-13.1°C 3.7°F-15.7°C 80% 2.0 mph S3.2 kmh S 7.0 mph11.3 kmh 30.55 in1034.5 mb 0.00 in0.0 mm 0.00 in0.0 mm 0.00 in0.0 mm
09:33 AM 8.0°F-13.3°C 3.2°F-16.0°C 80% 6.0 mph S9.7 kmh S 7.0 mph11.3 kmh 30.55 in1034.5 mb 0.00 in0.0 mm 0.00 in0.0 mm 0.00 in0.0 mm
09:28 AM 7.5°F-13.6°C 2.7°F-16.3°C 80% 4.0 mph S6.4 kmh S 5.0 mph8.0 kmh 30.55 in1034.5 mb 0.00 in0.0 mm 0.00 in0.0 mm 0.00 in0.0 mm
09:23 AM 7.0°F-13.9°C 2.2°F-16.6°C 80% 3.0 mph S4.8 kmh S 5.0 mph8.0 kmh 30.55 in1034.5 mb 0.00 in0.0 mm 0.00 in0.0 mm 0.00 in0.0 mm
09:18 AM 6.5°F-14.2°C 1.7°F-16.8°C 80% 4.0 mph S6.4 kmh S 5.0 mph8.0 kmh 30.55 in1034.5 mb 0.00 in0.0 mm 0.00 in0.0 mm 0.00 in0.0 mm
09:13 AM 5.9°F-14.5°C 0.9°F-17.3°C 79% 4.0 mph SSW6.4 kmh SSW 5.0 mph8.0 kmh 30.55 in1034.5 mb 0.00 in0.0 mm 0.00 in0.0 mm 0.00 in0.0 mm
09:08 AM 5.5°F-14.7°C 0.5°F-17.5°C 79% 3.0 mph SSW4.8 kmh SSW 5.0 mph8.0 kmh 30.55 in1034.5 mb 0.00 in0.0 mm 0.00 in0.0 mm 0.00 in0.0 mm
09:03 AM 4.9°F-15.1°C -0.1°F-17.8°C 79% 2.0 mph S3.2 kmh S 5.0 mph8.0 kmh 30.55 in1034.5 mb 0.00 in0.0 mm 0.00 in0.0 mm 0.00 in0.0 mm
08:58 AM 4.3°F-15.4°C -0.7°F-18.2°C 79% 3.0 mph S4.8 kmh S 6.0 mph9.7 kmh 30.55 in1034.5 mb 0.00 in0.0 mm 0.00 in0.0 mm 0.00 in0.0 mm
08:53 AM 3.7°F-15.7°C -1.3°F-18.5°C 79% 5.0 mph S8.0 kmh S 6.0 mph9.7 kmh 30.54 in1034.2 mb 0.00 in0.0 mm 0.00 in0.0 mm 0.00 in0.0 mm
08:48 AM 3.0°F-16.1°C -2.2°F-19.0°C 78% 4.0 mph S6.4 kmh S 6.0 mph9.7 kmh 30.54 in1034.2 mb 0.00 in0.0 mm 0.00 in0.0 mm 0.00 in0.0 mm
08:43 AM 2.3°F-16.5°C -2.9°F-19.4°C 78% 5.0 mph S8.0 kmh S 6.0 mph9.7 kmh 30.54 in1034.2 mb 0.00 in0.0 mm 0.00 in0.0 mm 0.00 in0.0 mm
08:38 AM 1.6°F-16.9°C -3.9°F-19.9°C 77% 2.0 mph S3.2 kmh S 5.0 mph8.0 kmh 30.54 in1034.2 mb 0.00 in0.0 mm 0.00 in0.0 mm 0.00 in0.0 mm
08:33 AM 0.8°F-17.3°C -4.6°F-20.3°C 77% 4.0 mph S6.4 kmh S 5.0 mph8.0 kmh 30.54 in1034.2 mb 0.00 in0.0 mm 0.00 in0.0 mm 0.00 in0.0 mm
08:28 AM 0.1°F-17.7°C -5.3°F-20.7°C 77% 4.0 mph S6.4 kmh S 5.0 mph8.0 kmh 30.54 in1034.2 mb 0.00 in0.0 mm 0.00 in0.0 mm 0.00 in0.0 mm
08:23 AM -0.5°F-18.1°C -6.2°F-21.2°C 76% 1.0 mph S1.6 kmh S 5.0 mph8.0 kmh 30.54 in1034.2 mb 0.00 in0.0 mm 0.00 in0.0 mm 0.00 in0.0 mm
08:18 AM -0.9°F-18.3°C -6.6°F-21.4°C 76% 2.0 mph S3.2 kmh S 3.0 mph4.8 kmh 30.54 in1034.2 mb 0.00 in0.0 mm 0.00 in0.0 mm 0.00 in0.0 mm
08:13 AM -1.0°F-18.3°C -6.9°F-21.6°C 75% 2.0 mph S3.2 kmh S 2.0 mph3.2 kmh 30.54 in1034.2 mb 0.00 in0.0 mm 0.00 in0.0 mm 0.00 in0.0 mm
08:08 AM -1.0°F-18.3°C -6.9°F-21.6°C 75% Calm Calm 1.0 mph1.6 kmh 30.53 in1033.9 mb 0.00 in0.0 mm 0.00 in0.0 mm 0.00 in0.0 mm
08:03 AM -1.0°F-18.3°C -6.9°F-21.6°C 75% 1.0 mph S1.6 kmh S 3.0 mph4.8 kmh 30.53 in1033.9 mb 0.00 in0.0 mm 0.00 in0.0 mm 0.00 in0.0 mm
07:58 AM -0.9°F-18.3°C -6.9°F-21.6°C 75% Calm Calm 3.0 mph4.8 kmh 30.53 in1033.9 mb 0.00 in0.0 mm 0.00 in0.0 mm 0.00 in0.0 mm
07:53 AM -0.8°F-18.2°C -6.8°F-21.6°C 75% 1.0 mph S1.6 kmh S 2.0 mph3.2 kmh 30.53 in1033.9 mb 0.00 in0.0 mm 0.00 in0.0 mm 0.00 in0.0 mm
07:48 AM -0.7°F-18.2°C -6.7°F-21.5°C 75% Calm Calm 2.0 mph3.2 kmh 30.53 in1033.9 mb 0.00 in0.0 mm 0.00 in0.0 mm 0.00 in0.0 mm
07:43 AM -0.6°F-18.1°C -6.6°F-21.4°C 75% 2.0 mph S3.2 kmh S 3.0 mph4.8 kmh 30.53 in1033.9 mb 0.00 in0.0 mm 0.00 in0.0 mm 0.00 in0.0 mm
07:38 AM -0.5°F-18.1°C -6.2°F-21.2°C 76% 1.0 mph S1.6 kmh S 3.0 mph4.8 kmh 30.54 in1034.2 mb 0.00 in0.0 mm 0.00 in0.0 mm 0.00 in0.0 mm
07:33 AM -0.4°F-18.0°C -6.1°F-21.2°C 76% Calm Calm 3.0 mph4.8 kmh 30.53 in1033.9 mb 0.00 in0.0 mm 0.00 in0.0 mm 0.00 in0.0 mm
07:28 AM -0.3°F-17.9°C -6.0°F-21.1°C 76% Calm Calm 3.0 mph4.8 kmh 30.53 in1033.9 mb 0.00 in0.0 mm 0.00 in0.0 mm 0.00 in0.0 mm
07:23 AM -0.2°F-17.9°C -5.9°F-21.1°C 76% 1.0 mph S1.6 kmh S 2.0 mph3.2 kmh 30.53 in1033.9 mb 0.00 in0.0 mm 0.00 in0.0 mm 0.00 in0.0 mm
07:18 AM -0.2°F-17.9°C -5.9°F-21.1°C 76% 1.0 mph S1.6 kmh S 2.0 mph3.2 kmh 30.53 in1033.9 mb 0.00 in0.0 mm 0.00 in0.0 mm 0.00 in0.0 mm
07:13 AM -0.2°F-17.9°C -5.9°F-21.1°C 76% 1.0 mph S1.6 kmh S 2.0 mph3.2 kmh 30.53 in1033.9 mb 0.00 in0.0 mm 0.00 in0.0 mm 0.00 in0.0 mm
07:08 AM -0.2°F-17.9°C -5.9°F-21.1°C 76% Calm Calm -- 30.54 in1034.2 mb 0.00 in0.0 mm 0.00 in0.0 mm 0.00 in0.0 mm
07:03 AM -0.2°F-17.9°C -5.9°F-21.1°C 76% Calm Calm -- 30.54 in1034.2 mb 0.00 in0.0 mm 0.00 in0.0 mm 0.00 in0.0 mm
06:58 AM -0.2°F-17.9°C -5.9°F-21.1°C 76% Calm Calm -- 30.54 in1034.2 mb 0.00 in0.0 mm 0.00 in0.0 mm 0.00 in0.0 mm
06:53 AM -0.3°F-17.9°C -6.0°F-21.1°C 76% Calm Calm 4.0 mph6.4 kmh 30.54 in1034.2 mb 0.00 in0.0 mm 0.00 in0.0 mm 0.00 in0.0 mm
06:48 AM -0.3°F-17.9°C -6.0°F-21.1°C 76% 2.0 mph S3.2 kmh S 4.0 mph6.4 kmh 30.54 in1034.2 mb 0.00 in0.0 mm 0.00 in0.0 mm 0.00 in0.0 mm
06:43 AM -0.4°F-18.0°C -6.1°F-21.2°C 76% 2.0 mph S3.2 kmh S 3.0 mph4.8 kmh 30.54 in1034.2 mb 0.00 in0.0 mm 0.00 in0.0 mm 0.00 in0.0 mm
06:38 AM -0.5°F-18.1°C -6.2°F-21.2°C 76% 1.0 mph S1.6 kmh S 3.0 mph4.8 kmh 30.54 in1034.2 mb 0.00 in0.0 mm 0.00 in0.0 mm 0.00 in0.0 mm
06:33 AM -0.5°F-18.1°C -6.2°F-21.2°C 76% Calm Calm 3.0 mph4.8 kmh 30.53 in1033.9 mb 0.00 in0.0 mm 0.00 in0.0 mm 0.00 in0.0 mm
06:28 AM -0.7°F-18.2°C -6.7°F-21.5°C 75% 2.0 mph S3.2 kmh S 4.0 mph6.4 kmh 30.54 in1034.2 mb 0.00 in0.0 mm 0.00 in0.0 mm 0.00 in0.0 mm
06:23 AM -0.8°F-18.2°C -6.8°F-21.6°C 75% 2.0 mph S3.2 kmh S 4.0 mph6.4 kmh 30.54 in1034.2 mb 0.00 in0.0 mm 0.00 in0.0 mm 0.00 in0.0 mm
06:18 AM -1.1°F-18.4°C -7.0°F-21.7°C 75% 2.0 mph S3.2 kmh S 4.0 mph6.4 kmh 30.54 in1034.2 mb 0.00 in0.0 mm 0.00 in0.0 mm 0.00 in0.0 mm
06:13 AM -1.3°F-18.5°C -7.2°F-21.8°C 75% 2.0 mph S3.2 kmh S 4.0 mph6.4 kmh 30.54 in1034.2 mb 0.00 in0.0 mm 0.00 in0.0 mm 0.00 in0.0 mm
06:08 AM -1.5°F-18.6°C -7.4°F-21.9°C 75% 2.0 mph S3.2 kmh S 3.0 mph4.8 kmh 30.54 in1034.2 mb 0.00 in0.0 mm 0.00 in0.0 mm 0.00 in0.0 mm
06:03 AM -1.5°F-18.6°C -7.4°F-21.9°C 75% Calm Calm -- 30.54 in1034.2 mb 0.00 in0.0 mm 0.00 in0.0 mm 0.00 in0.0 mm
05:58 AM -1.4°F-18.6°C -7.3°F-21.8°C 75% Calm Calm 1.0 mph1.6 kmh 30.54 in1034.2 mb 0.00 in0.0 mm 0.00 in0.0 mm 0.00 in0.0 mm
05:53 AM -1.3°F-18.5°C -7.2°F-21.8°C 75% Calm Calm -- 30.54 in1034.2 mb 0.00 in0.0 mm 0.00 in0.0 mm 0.00 in0.0 mm
05:48 AM -1.1°F-18.4°C -7.0°F-21.7°C 75% Calm Calm -- 30.54 in1034.2 mb 0.00 in0.0 mm 0.00 in0.0 mm 0.00 in0.0 mm
05:43 AM -1.0°F-18.3°C -6.9°F-21.6°C 75% Calm Calm 1.0 mph1.6 kmh 30.54 in1034.2 mb 0.00 in0.0 mm 0.00 in0.0 mm 0.00 in0.0 mm
05:38 AM -0.9°F-18.3°C -6.9°F-21.6°C 75% Calm Calm -- 30.54 in1034.2 mb 0.00 in0.0 mm 0.00 in0.0 mm 0.00 in0.0 mm
05:33 AM -0.9°F-18.3°C -6.9°F-21.6°C 75% Calm Calm -- 30.54 in1034.2 mb 0.00 in0.0 mm 0.00 in0.0 mm 0.00 in0.0 mm
05:28 AM -1.0°F-18.3°C -6.9°F-21.6°C 75% Calm Calm -- 30.54 in1034.2 mb 0.00 in0.0 mm 0.00 in0.0 mm 0.00 in0.0 mm
05:23 AM -1.0°F-18.3°C -6.9°F-21.6°C 75% Calm Calm 1.0 mph1.6 kmh 30.54 in1034.2 mb 0.00 in0.0 mm 0.00 in0.0 mm 0.00 in0.0 mm
05:18 AM -0.9°F-18.3°C -6.9°F-21.6°C 75% Calm Calm -- 30.54 in1034.2 mb 0.00 in0.0 mm 0.00 in0.0 mm 0.00 in0.0 mm
05:13 AM -0.9°F-18.3°C -6.9°F-21.6°C 75% Calm Calm -- 30.54 in1034.2 mb 0.00 in0.0 mm 0.00 in0.0 mm 0.00 in0.0 mm
05:08 AM -0.8°F-18.2°C -6.8°F-21.6°C 75% 3.0 mph S4.8 kmh S 3.0 mph4.8 kmh 30.54 in1034.2 mb 0.00 in0.0 mm 0.00 in0.0 mm 0.00 in0.0 mm
05:03 AM -0.8°F-18.2°C -6.8°F-21.6°C 75% 3.0 mph S4.8 kmh S 3.0 mph4.8 kmh 30.54 in1034.2 mb 0.00 in0.0 mm 0.00 in0.0 mm 0.00 in0.0 mm
04:58 AM -0.7°F-18.2°C -6.9°F-21.6°C 74% 2.0 mph S3.2 kmh S 3.0 mph4.8 kmh 30.54 in1034.2 mb 0.00 in0.0 mm 0.00 in0.0 mm 0.00 in0.0 mm
04:53 AM -0.6°F-18.1°C -6.8°F-21.6°C 74% Calm Calm 3.0 mph4.8 kmh 30.54 in1034.2 mb 0.00 in0.0 mm 0.00 in0.0 mm 0.00 in0.0 mm
04:48 AM -0.5°F-18.1°C -6.7°F-21.5°C 74% 3.0 mph S4.8 kmh S 3.0 mph4.8 kmh 30.54 in1034.2 mb 0.00 in0.0 mm 0.00 in0.0 mm 0.00 in0.0 mm
04:43 AM -0.3°F-17.9°C -6.6°F-21.4°C 74% 3.0 mph S4.8 kmh S 3.0 mph4.8 kmh 30.54 in1034.2 mb 0.00 in0.0 mm 0.00 in0.0 mm 0.00 in0.0 mm
04:38 AM -0.1°F-17.8°C -6.1°F-21.2°C 75% 2.0 mph S3.2 kmh S 3.0 mph4.8 kmh 30.54 in1034.2 mb 0.00 in0.0 mm 0.00 in0.0 mm 0.00 in0.0 mm
04:33 AM -0.1°F-17.8°C -6.1°F-21.2°C 75% Calm Calm 3.0 mph4.8 kmh 30.53 in1033.9 mb 0.00 in0.0 mm 0.00 in0.0 mm 0.00 in0.0 mm
04:28 AM 0.0°F-17.8°C -6.0°F-21.1°C 75% 1.0 mph S1.6 kmh S 3.0 mph4.8 kmh 30.53 in1033.9 mb 0.00 in0.0 mm 0.00 in0.0 mm 0.00 in0.0 mm
04:23 AM 0.1°F-17.7°C -6.2°F-21.2°C 74% 3.0 mph S4.8 kmh S 3.0 mph4.8 kmh 30.54 in1034.2 mb 0.00 in0.0 mm 0.00 in0.0 mm 0.00 in0.0 mm
04:18 AM 0.2°F-17.7°C -6.1°F-21.2°C 74% 1.0 mph S1.6 kmh S 3.0 mph4.8 kmh 30.54 in1034.2 mb 0.00 in0.0 mm 0.00 in0.0 mm 0.00 in0.0 mm
04:13 AM 0.3°F-17.6°C -5.7°F-20.9°C 75% 1.0 mph S1.6 kmh S 3.0 mph4.8 kmh 30.53 in1033.9 mb 0.00 in0.0 mm 0.00 in0.0 mm 0.00 in0.0 mm
04:08 AM 0.5°F-17.5°C -5.5°F-20.8°C 75% 2.0 mph S3.2 kmh S 3.0 mph4.8 kmh 30.54 in1034.2 mb 0.00 in0.0 mm 0.00 in0.0 mm 0.00 in0.0 mm
04:03 AM 0.6°F-17.4°C -5.4°F-20.8°C 75% 3.0 mph S4.8 kmh S 3.0 mph4.8 kmh 30.54 in1034.2 mb 0.00 in0.0 mm 0.00 in0.0 mm 0.00 in0.0 mm
03:58 AM 0.8°F-17.3°C -5.2°F-20.7°C 75% 1.0 mph S1.6 kmh S 3.0 mph4.8 kmh 30.54 in1034.2 mb 0.00 in0.0 mm 0.00 in0.0 mm 0.00 in0.0 mm
03:53 AM 1.0°F-17.2°C -5.0°F-20.6°C 75% 3.0 mph S4.8 kmh S 4.0 mph6.4 kmh 30.54 in1034.2 mb 0.00 in0.0 mm 0.00 in0.0 mm 0.00 in0.0 mm
03:48 AM 1.2°F-17.1°C -4.8°F-20.4°C 75% 2.0 mph S3.2 kmh S 4.0 mph6.4 kmh 30.53 in1033.9 mb 0.00 in0.0 mm 0.00 in0.0 mm 0.00 in0.0 mm
03:43 AM 1.3°F-17.1°C -4.7°F-20.4°C 75% 2.0 mph S3.2 kmh S 4.0 mph6.4 kmh 30.53 in1033.9 mb 0.00 in0.0 mm 0.00 in0.0 mm 0.00 in0.0 mm
03:38 AM 1.5°F-16.9°C -4.5°F-20.3°C 75% 2.0 mph S3.2 kmh S 4.0 mph6.4 kmh 30.53 in1033.9 mb 0.00 in0.0 mm 0.00 in0.0 mm 0.00 in0.0 mm
03:33 AM 1.7°F-16.8°C -4.3°F-20.2°C 75% Calm Calm 4.0 mph6.4 kmh 30.53 in1033.9 mb 0.00 in0.0 mm 0.00 in0.0 mm 0.00 in0.0 mm
03:28 AM 2.1°F-16.6°C -4.0°F-20.0°C 75% 2.0 mph S3.2 kmh S 4.0 mph6.4 kmh 30.53 in1033.9 mb 0.00 in0.0 mm 0.00 in0.0 mm 0.00 in0.0 mm
03:23 AM 2.4°F-16.4°C -3.7°F-19.8°C 75% 2.0 mph S3.2 kmh S 3.0 mph4.8 kmh 30.53 in1033.9 mb 0.00 in0.0 mm 0.00 in0.0 mm 0.00 in0.0 mm
03:18 AM 2.6°F-16.3°C -3.2°F-19.6°C 76% Calm Calm 3.0 mph4.8 kmh 30.53 in1033.9 mb 0.00 in0.0 mm 0.00 in0.0 mm 0.00 in0.0 mm
03:13 AM 2.7°F-16.3°C -3.1°F-19.5°C 76% 2.0 mph S3.2 kmh S 3.0 mph4.8 kmh 30.54 in1034.2 mb 0.00 in0.0 mm 0.00 in0.0 mm 0.00 in0.0 mm
03:08 AM 2.8°F-16.2°C -3.0°F-19.4°C 76% 2.0 mph S3.2 kmh S 3.0 mph4.8 kmh 30.54 in1034.2 mb 0.00 in0.0 mm 0.00 in0.0 mm 0.00 in0.0 mm
03:03 AM 2.9°F-16.2°C -2.9°F-19.4°C 76% 2.0 mph S3.2 kmh S 4.0 mph6.4 kmh 30.54 in1034.2 mb 0.00 in0.0 mm 0.00 in0.0 mm 0.00 in0.0 mm
02:58 AM 2.9°F-16.2°C -2.9°F-19.4°C 76% 1.0 mph S1.6 kmh S 4.0 mph6.4 kmh 30.53 in1033.9 mb 0.00 in0.0 mm 0.00 in0.0 mm 0.00 in0.0 mm
02:53 AM 2.8°F-16.2°C -3.0°F-19.4°C 76% 3.0 mph S4.8 kmh S 4.0 mph6.4 kmh 30.53 in1033.9 mb 0.00 in0.0 mm 0.00 in0.0 mm 0.00 in0.0 mm
02:48 AM 2.7°F-16.3°C -3.4°F-19.7°C 75% 3.0 mph S4.8 kmh S 4.0 mph6.4 kmh 30.53 in1033.9 mb 0.00 in0.0 mm 0.00 in0.0 mm 0.00 in0.0 mm
02:43 AM 2.7°F-16.3°C -3.4°F-19.7°C 75% 1.0 mph S1.6 kmh S 3.0 mph4.8 kmh 30.53 in1033.9 mb 0.00 in0.0 mm 0.00 in0.0 mm 0.00 in0.0 mm
02:38 AM 2.7°F-16.3°C -3.4°F-19.7°C 75% Calm Calm -- 30.53 in1033.9 mb 0.00 in0.0 mm 0.00 in0.0 mm 0.00 in0.0 mm
02:33 AM 2.9°F-16.2°C -3.2°F-19.6°C 75% Calm Calm 1.0 mph1.6 kmh 30.53 in1033.9 mb 0.00 in0.0 mm 0.00 in0.0 mm 0.00 in0.0 mm
02:28 AM 2.9°F-16.2°C -3.2°F-19.6°C 75% Calm Calm 1.0 mph1.6 kmh 30.52 in1033.5 mb 0.00 in0.0 mm 0.00 in0.0 mm 0.00 in0.0 mm
02:23 AM 3.0°F-16.1°C -3.1°F-19.5°C 75% Calm Calm -- 30.53 in1033.9 mb 0.00 in0.0 mm 0.00 in0.0 mm 0.00 in0.0 mm
02:18 AM 3.2°F-16.0°C -2.9°F-19.4°C 75% Calm Calm 4.0 mph6.4 kmh 30.53 in1033.9 mb 0.00 in0.0 mm 0.00 in0.0 mm 0.00 in0.0 mm
02:13 AM 3.5°F-15.8°C -2.6°F-19.2°C 75% 3.0 mph S4.8 kmh S 4.0 mph6.4 kmh 30.52 in1033.5 mb 0.00 in0.0 mm 0.00 in0.0 mm 0.00 in0.0 mm
02:08 AM 3.7°F-15.7°C -2.4°F-19.1°C 75% 1.0 mph S1.6 kmh S 4.0 mph6.4 kmh 30.52 in1033.5 mb 0.00 in0.0 mm 0.00 in0.0 mm 0.00 in0.0 mm
02:03 AM 4.0°F-15.6°C -2.1°F-18.9°C 75% 1.0 mph S1.6 kmh S 3.0 mph4.8 kmh 30.52 in1033.5 mb 0.00 in0.0 mm 0.00 in0.0 mm 0.00 in0.0 mm
01:58 AM 4.3°F-15.4°C -1.8°F-18.8°C 75% 2.0 mph S3.2 kmh S 3.0 mph4.8 kmh 30.52 in1033.5 mb 0.00 in0.0 mm 0.00 in0.0 mm 0.00 in0.0 mm
01:53 AM 4.4°F-15.3°C -1.7°F-18.7°C 75% Calm Calm 4.0 mph6.4 kmh 30.52 in1033.5 mb 0.00 in0.0 mm 0.00 in0.0 mm 0.00 in0.0 mm
01:48 AM 4.5°F-15.3°C -1.6°F-18.7°C 75% 3.0 mph S4.8 kmh S 3.0 mph4.8 kmh 30.52 in1033.5 mb 0.00 in0.0 mm 0.00 in0.0 mm 0.00 in0.0 mm
01:43 AM 4.8°F-15.1°C -1.3°F-18.5°C 75% 2.0 mph S3.2 kmh S 2.0 mph3.2 kmh 30.52 in1033.5 mb 0.00 in0.0 mm 0.00 in0.0 mm 0.00 in0.0 mm
01:38 AM 5.0°F-15.0°C -1.1°F-18.4°C 75% 1.0 mph S1.6 kmh S 2.0 mph3.2 kmh 30.52 in1033.5 mb 0.00 in0.0 mm 0.00 in0.0 mm 0.00 in0.0 mm
01:33 AM 5.1°F-14.9°C -1.1°F-18.4°C 75% 1.0 mph S1.6 kmh S 2.0 mph3.2 kmh 30.52 in1033.5 mb 0.00 in0.0 mm 0.00 in0.0 mm 0.00 in0.0 mm
01:28 AM 5.3°F-14.8°C -0.9°F-18.3°C 75% Calm Calm -- 30.52 in1033.5 mb 0.00 in0.0 mm 0.00 in0.0 mm 0.00 in0.0 mm
01:23 AM 5.4°F-14.8°C -0.8°F-18.2°C 75% Calm Calm -- 30.52 in1033.5 mb 0.00 in0.0 mm 0.00 in0.0 mm 0.00 in0.0 mm
01:18 AM 5.5°F-14.7°C -0.7°F-18.2°C 75% Calm Calm -- 30.52 in1033.5 mb 0.00 in0.0 mm 0.00 in0.0 mm 0.00 in0.0 mm
01:13 AM 5.6°F-14.7°C -0.6°F-18.1°C 75% Calm Calm -- 30.52 in1033.5 mb 0.00 in0.0 mm 0.00 in0.0 mm 0.00 in0.0 mm
01:08 AM 5.7°F-14.6°C -0.5°F-18.1°C 75% 3.0 mph S4.8 kmh S 3.0 mph4.8 kmh 30.52 in1033.5 mb 0.00 in0.0 mm 0.00 in0.0 mm 0.00 in0.0 mm
01:03 AM 5.9°F-14.5°C -0.3°F-17.9°C 75% Calm Calm -- 30.52 in1033.5 mb 0.00 in0.0 mm 0.00 in0.0 mm 0.00 in0.0 mm
12:58 AM 6.1°F-14.4°C -0.1°F-17.8°C 75% 1.0 mph S1.6 kmh S 2.0 mph3.2 kmh 30.52 in1033.5 mb 0.00 in0.0 mm 0.00 in0.0 mm 0.00 in0.0 mm
12:53 AM 6.3°F-14.3°C 0.1°F-17.7°C 75% 2.0 mph S3.2 kmh S 3.0 mph4.8 kmh 30.52 in1033.5 mb 0.00 in0.0 mm 0.00 in0.0 mm 0.00 in0.0 mm
12:48 AM 6.5°F-14.2°C 0.3°F-17.6°C 75% Calm Calm -- 30.52 in1033.5 mb 0.00 in0.0 mm 0.00 in0.0 mm 0.00 in0.0 mm
12:43 AM 6.6°F-14.1°C 0.4°F-17.6°C 75% Calm Calm 3.0 mph4.8 kmh 30.52 in1033.5 mb 0.00 in0.0 mm 0.00 in0.0 mm 0.00 in0.0 mm
12:38 AM 6.7°F-14.1°C 0.5°F-17.5°C 75% Calm Calm -- 30.52 in1033.5 mb 0.00 in0.0 mm 0.00 in0.0 mm 0.00 in0.0 mm
12:33 AM 6.9°F-13.9°C 0.7°F-17.4°C 75% 1.0 mph S1.6 kmh S 3.0 mph4.8 kmh 30.52 in1033.5 mb 0.00 in0.0 mm 0.00 in0.0 mm 0.00 in0.0 mm
12:28 AM 7.2°F-13.8°C 1.0°F-17.2°C 75% 1.0 mph S1.6 kmh S 3.0 mph4.8 kmh 30.52 in1033.5 mb 0.00 in0.0 mm 0.00 in0.0 mm 0.00 in0.0 mm
12:23 AM 7.5°F-13.6°C 1.3°F-17.1°C 75% 3.0 mph S4.8 kmh S 3.0 mph4.8 kmh 30.52 in1033.5 mb 0.00 in0.0 mm 0.00 in0.0 mm 0.00 in0.0 mm
12:18 AM 7.7°F-13.5°C 1.5°F-16.9°C 75% 1.0 mph S1.6 kmh S 2.0 mph3.2 kmh 30.52 in1033.5 mb 0.00 in0.0 mm 0.00 in0.0 mm 0.00 in0.0 mm
12:13 AM 8.0°F-13.3°C 1.8°F-16.8°C 75% 1.0 mph S1.6 kmh S 2.0 mph3.2 kmh 30.52 in1033.5 mb 0.00 in0.0 mm 0.00 in0.0 mm 0.00 in0.0 mm
12:08 AM 8.1°F-13.3°C 1.8°F-16.8°C 75% Calm Calm -- 30.52 in1033.5 mb 0.00 in0.0 mm 0.00 in0.0 mm 0.00 in0.0 mm
12:03 AM 8.3°F-13.2°C 2.3°F-16.5°C 76% Calm Calm -- 30.52 in1033.5 mb 0.00 in0.0 mm 0.00 in0.0 mm 0.00 in0.0 mm